Time;durP1;ratioP1;P1;durP2;ratioP2;P2;SDS_P1;SDS_P2;PMS_P1;PMS_P2;Temp;Humidity;BMP_temperature;BMP_pressure;BME280_temperature;BME280_humidity;BME280_pressure;Samples;Min_cycle;Max_cycle;Signal;HPM_P1;HPM_P2
2024/04/06 00:00:17;;;;;;;10.80;7.40;;;;;;;12.57;100.00;98705.39;109678;1250;59055;-75
2024/04/06 00:03:04;;;;;;;12.40;7.00;;;;;;;12.57;100.00;98703.09;109658;1250;58931;-75
2024/04/06 00:05:30;;;;;;;10.50;7.20;;;;;;;12.57;100.00;98709.30;109672;1251;59019;-75
2024/04/06 00:07:57;;;;;;;12.00;7.60;;;;;;;12.58;100.00;98708.30;109538;1251;59004;-75
2024/04/06 00:10:23;;;;;;;10.70;8.20;;;;;;;12.59;100.00;98708.27;109707;1250;59051;-75
2024/04/06 00:12:50;;;;;;;8.90;7.60;;;;;;;12.61;100.00;98714.70;109648;1250;59803;-73
2024/04/06 00:15:17;;;;;;;10.70;7.70;;;;;;;12.63;100.00;98712.20;109644;1250;59318;-75
2024/04/06 00:17:43;;;;;;;9.30;7.10;;;;;;;12.67;100.00;98711.70;109603;1250;59071;-74
2024/04/06 00:20:09;;;;;;;9.90;7.40;;;;;;;12.70;100.00;98711.45;109686;1250;59228;-74
2024/04/06 00:22:36;;;;;;;14.20;8.30;;;;;;;12.72;100.00;98712.38;109662;1249;59038;-74
2024/04/06 00:25:03;;;;;;;9.50;7.60;;;;;;;12.74;100.00;98710.23;109660;1251;59001;-76
2024/04/06 00:27:31;;;;;;;10.50;7.50;;;;;;;12.78;100.00;98710.84;109645;1251;59244;-74
2024/04/06 00:29:57;;;;;;;9.30;6.50;;;;;;;12.81;100.00;98709.71;109657;1250;59185;-74
2024/04/06 00:32:23;;;;;;;9.90;5.60;;;;;;;12.85;100.00;98707.59;109507;1250;59147;-74
2024/04/06 00:34:49;;;;;;;7.90;5.00;;;;;;;12.90;100.00;98709.45;109691;1250;59090;-74
2024/04/06 00:37:16;;;;;;;5.20;2.70;;;;;;;13.01;100.00;98709.83;109675;1251;59067;-75
2024/04/06 00:39:42;;;;;;;2.40;2.00;;;;;;;13.20;100.00;98716.33;109354;1251;59389;-75
2024/04/06 00:42:08;;;;;;;3.10;2.30;;;;;;;13.47;100.00;98720.35;109695;1250;59423;-75
2024/04/06 00:44:35;;;;;;;3.30;1.80;;;;;;;13.74;100.00;98721.13;109685;1251;58991;-74
2024/04/06 00:47:02;;;;;;;2.30;1.60;;;;;;;14.01;100.00;98719.37;109668;1250;59021;-73
2024/04/06 00:49:28;;;;;;;3.60;1.60;;;;;;;14.24;100.00;98715.77;109667;1250;59111;-73
2024/04/06 00:51:55;;;;;;;3.30;1.40;;;;;;;14.45;100.00;98720.04;109655;1250;58985;-74
2024/04/06 00:54:21;;;;;;;2.70;1.40;;;;;;;14.60;100.00;98713.02;109465;1251;59046;-75
2024/04/06 00:56:49;;;;;;;3.30;1.20;;;;;;;14.77;100.00;98713.48;109699;1250;59048;-74
2024/04/06 00:59:17;;;;;;;3.80;1.20;;;;;;;14.95;100.00;98714.02;109705;1250;58999;-72
2024/04/06 01:01:44;;;;;;;2.20;1.20;;;;;;;15.13;100.00;98715.67;109476;1249;72839;-74
2024/04/06 01:04:10;;;;;;;1.80;1.00;;;;;;;15.28;100.00;98722.75;109651;1250;58995;-73
2024/04/06 01:06:37;;;;;;;2.90;1.20;;;;;;;15.42;100.00;98726.11;109658;1250;59075;-73
2024/04/06 01:09:03;;;;;;;2.00;1.10;;;;;;;15.52;100.00;98731.77;109666;1251;59002;-74
2024/04/06 01:11:30;;;;;;;3.00;1.10;;;;;;;15.59;100.00;98732.98;109684;1251;58964;-74
2024/04/06 01:13:56;;;;;;;1.90;1.20;;;;;;;15.64;100.00;98729.63;109626;1251;64951;-75
2024/04/06 01:16:23;;;;;;;1.30;1.00;;;;;;;15.71;100.00;98731.88;109639;1250;59815;-75
2024/04/06 01:18:49;;;;;;;1.40;0.90;;;;;;;15.76;100.00;98731.80;109528;1250;59952;-74
2024/04/06 01:21:15;;;;;;;1.60;1.10;;;;;;;15.81;100.00;98730.95;109671;1251;59883;-74
2024/04/06 01:23:43;;;;;;;1.30;1.00;;;;;;;15.83;100.00;98731.85;109699;1250;59863;-74
2024/04/06 01:26:09;;;;;;;1.30;0.90;;;;;;;15.83;100.00;98733.84;109659;1251;64116;-73
2024/04/06 01:28:35;;;;;;;1.30;1.20;;;;;;;15.81;100.00;98738.45;109621;1251;59869;-74
2024/04/06 01:31:02;;;;;;;1.30;1.00;;;;;;;15.81;100.00;98746.73;109648;1250;59906;-74
2024/04/06 01:33:28;;;;;;;2.10;0.90;;;;;;;15.80;100.00;98753.80;109657;1251;59848;-74
2024/04/06 01:35:54;;;;;;;2.40;1.00;;;;;;;15.81;100.00;98757.64;109716;1250;59829;-74
2024/04/06 01:38:21;;;;;;;2.00;1.00;;;;;;;15.82;100.00;98758.80;109695;1251;60155;-74
2024/04/06 01:40:50;;;;;;;5.60;0.90;;;;;;;15.83;100.00;98756.61;109349;1251;59952;-73
2024/04/06 01:43:36;;;;;;;1.30;0.90;;;;;;;15.85;100.00;98755.48;109083;1254;60223;-75
2024/04/06 01:46:02;;;;;;;1.10;1.00;;;;;;;15.86;100.00;98757.20;109436;1254;59777;-74
2024/04/06 01:48:29;;;;;;;1.60;1.20;;;;;;;15.86;100.00;98759.05;109452;1254;60044;-74
2024/04/06 01:50:55;;;;;;;1.60;1.40;;;;;;;15.90;100.00;98768.65;109362;1253;59932;-73
2024/04/06 01:53:21;;;;;;;3.30;1.20;;;;;;;15.93;100.00;98774.05;109427;1254;59926;-74
2024/04/06 01:55:48;;;;;;;4.10;1.90;;;;;;;15.92;100.00;98781.89;109415;1253;60035;-75
2024/04/06 01:58:14;;;;;;;5.00;2.40;;;;;;;15.89;100.00;98780.02;109430;1254;59981;-75
2024/04/06 02:00:40;;;;;;;1.90;1.60;;;;;;;15.87;100.00;98774.99;109512;1253;59871;-75
2024/04/06 02:03:07;;;;;;;2.10;1.20;;;;;;;15.86;100.00;98773.46;109461;1254;59880;-74
2024/04/06 02:05:33;;;;;;;2.40;1.40;;;;;;;15.87;100.00;98776.97;109118;1252;60080;-75
2024/04/06 02:08:00;;;;;;;1.70;1.40;;;;;;;15.87;100.00;98779.83;109448;1253;59959;-74
2024/04/06 02:10:26;;;;;;;3.60;1.50;;;;;;;15.87;100.00;98784.02;109401;1254;59898;-75
2024/04/06 02:12:54;;;;;;;2.80;1.20;;;;;;;15.86;100.00;98786.80;109414;1253;59866;-73
2024/04/06 02:15:21;;;;;;;2.90;1.50;;;;;;;15.84;100.00;98786.93;109576;1250;63830;-75
2024/04/06 02:17:48;;;;;;;2.50;1.30;;;;;;;15.85;100.00;98789.00;109641;1251;60057;-74
2024/04/06 02:20:14;;;;;;;1.70;1.30;;;;;;;15.85;100.00;98794.77;109653;1251;59822;-74
2024/04/06 02:22:40;;;;;;;2.00;1.20;;;;;;;15.86;100.00;98798.81;109631;1251;59850;-73
2024/04/06 02:25:07;;;;;;;3.50;1.80;;;;;;;15.85;100.00;98798.33;109689;1253;59830;-74
2024/04/06 02:27:33;;;;;;;2.50;1.40;;;;;;;15.83;100.00;98801.18;109633;1251;59832;-74
2024/04/06 02:30:01;;;;;;;2.60;1.30;;;;;;;15.82;100.00;98803.42;109684;1250;59850;-75
2024/04/06 02:32:28;;;;;;;1.90;1.40;;;;;;;15.81;100.00;98811.05;109660;1251;59873;-74
2024/04/06 02:34:54;;;;;;;2.50;1.60;;;;;;;15.79;100.00;98807.83;109670;1251;65720;-74
2024/04/06 02:37:21;;;;;;;2.80;1.50;;;;;;;15.75;100.00;98813.84;109667;1251;59745;-74
2024/04/06 02:39:47;;;;;;;3.10;1.40;;;;;;;15.73;100.00;98817.36;109640;1250;59922;-73
2024/04/06 02:42:13;;;;;;;1.70;1.20;;;;;;;15.71;100.00;98820.77;109673;1251;60143;-74
2024/04/06 02:44:40;;;;;;;2.80;1.70;;;;;;;15.66;100.00;98822.55;109667;1250;59818;-74
2024/04/06 02:47:06;;;;;;;3.40;1.60;;;;;;;15.64;100.00;98823.45;109646;1250;59862;-74
2024/04/06 02:49:33;;;;;;;2.20;1.60;;;;;;;15.62;100.00;98825.96;109684;1249;59903;-74
2024/04/06 02:51:59;;;;;;;1.60;1.40;;;;;;;15.61;100.00;98831.48;109675;1250;59877;-75
2024/04/06 02:54:25;;;;;;;2.40;1.80;;;;;;;15.57;100.00;98834.46;109637;1249;60033;-75
2024/04/06 02:56:52;;;;;;;3.10;1.60;;;;;;;15.53;100.00;98832.88;109537;1251;59804;-74
2024/04/06 02:59:18;;;;;;;1.90;1.70;;;;;;;15.52;100.00;98840.52;109423;1249;59865;-74
2024/04/06 03:01:44;;;;;;;3.20;1.80;;;;;;;15.50;100.00;98840.33;109673;1251;59726;-74
2024/04/06 03:04:11;;;;;;;2.60;1.90;;;;;;;15.49;100.00;98848.67;109652;1250;59911;-74
2024/04/06 03:06:38;;;;;;;3.90;2.00;;;;;;;15.48;100.00;98851.95;109496;1250;59906;-74
2024/04/06 03:09:04;;;;;;;4.50;2.00;;;;;;;15.47;100.00;98853.66;109661;1251;59894;-73
2024/04/06 03:11:31;;;;;;;4.30;2.00;;;;;;;15.46;100.00;98856.21;109668;1250;59736;-74
2024/04/06 03:13:57;;;;;;;2.90;1.60;;;;;;;15.45;100.00;98864.21;109664;1251;59876;-73
2024/04/06 03:16:23;;;;;;;2.50;1.30;;;;;;;15.43;100.00;98872.67;109700;1252;60101;-76
2024/04/06 03:18:50;;;;;;;2.90;1.60;;;;;;;15.40;100.00;98872.75;109661;1251;59861;-75
2024/04/06 03:21:16;;;;;;;3.50;1.50;;;;;;;15.37;100.00;98871.53;109690;1249;59931;-75
2024/04/06 03:23:42;;;;;;;2.90;1.70;;;;;;;15.33;100.00;98870.61;109650;1251;59894;-75
2024/04/06 03:26:09;;;;;;;3.20;1.40;;;;;;;15.30;100.00;98866.98;109684;1253;59749;-74
2024/04/06 03:28:36;;;;;;;3.80;2.00;;;;;;;15.24;100.00;98865.54;109662;1251;59798;-74
2024/04/06 03:31:03;;;;;;;3.60;1.60;;;;;;;15.23;100.00;98871.39;109643;1251;59765;-74
2024/04/06 03:33:29;;;;;;;2.10;1.40;;;;;;;15.20;100.00;98872.84;109521;1251;59869;-75
2024/04/06 03:35:56;;;;;;;3.60;1.60;;;;;;;15.17;100.00;98874.55;109654;1253;59818;-75
2024/04/06 03:38:22;;;;;;;2.20;1.40;;;;;;;15.14;100.00;98876.48;109719;1251;59960;-75
2024/04/06 03:40:48;;;;;;;2.50;1.60;;;;;;;15.10;100.00;98880.70;109474;1254;59862;-74
2024/04/06 03:43:15;;;;;;;2.80;1.80;;;;;;;15.06;100.00;98880.86;109683;1250;59788;-74
2024/04/06 03:45:43;;;;;;;2.40;1.60;;;;;;;15.03;100.00;98885.25;109663;1251;59845;-73
2024/04/06 03:48:09;;;;;;;3.80;1.60;;;;;;;15.00;100.00;98888.80;109667;1251;67723;-74
2024/04/06 03:50:36;;;;;;;3.60;2.10;;;;;;;14.95;100.00;98892.63;109654;1251;59994;-74
2024/04/06 03:53:03;;;;;;;3.80;1.50;;;;;;;14.90;100.00;98897.16;109639;1251;60097;-74
2024/04/06 03:55:29;;;;;;;3.20;1.60;;;;;;;14.85;100.00;98896.85;109662;1250;59751;-74
2024/04/06 03:57:56;;;;;;;2.30;1.60;;;;;;;14.81;100.00;98895.45;109703;1251;59953;-74
2024/04/06 04:00:22;;;;;;;2.30;1.60;;;;;;;14.75;100.00;98896.63;109684;1251;59756;-73
2024/04/06 04:02:49;;;;;;;4.50;1.80;;;;;;;14.69;100.00;98898.56;109673;1251;60768;-76
2024/04/06 04:05:15;;;;;;;2.50;1.90;;;;;;;14.65;100.00;98903.95;109616;1251;59880;-75
2024/04/06 04:07:41;;;;;;;3.00;1.90;;;;;;;14.59;100.00;98907.09;109647;1251;60015;-76
2024/04/06 04:10:08;;;;;;;4.50;2.20;;;;;;;14.56;100.00;98908.69;109704;1251;60065;-74
2024/04/06 04:12:35;;;;;;;3.20;2.50;;;;;;;14.51;100.00;98912.06;109443;1251;59763;-74
2024/04/06 04:15:04;;;;;;;5.20;3.10;;;;;;;14.47;100.00;98912.77;109507;1251;59858;-74
2024/04/06 04:17:33;;;;;;;10.80;5.20;;;;;;;14.42;100.00;98918.18;109360;1251;63900;-74
2024/04/06 04:20:01;;;;;;;9.90;4.90;;;;;;;14.37;100.00;98920.89;109600;1253;59833;-75
2024/04/06 04:22:27;;;;;;;7.50;3.90;;;;;;;14.34;100.00;98923.70;109631;1251;59961;-74
2024/04/06 04:24:53;;;;;;;11.10;4.20;;;;;;;14.31;100.00;98924.08;109662;1250;59827;-75
2024/04/06 04:27:20;;;;;;;8.50;4.10;;;;;;;14.29;100.00;98931.59;109690;1250;59872;-75
2024/04/06 04:29:46;;;;;;;11.80;5.10;;;;;;;14.27;100.00;98935.48;109479;1251;60013;-75
2024/04/06 04:32:12;;;;;;;13.10;4.60;;;;;;;14.27;100.00;98941.80;109680;1250;60520;-74
2024/04/06 04:34:39;;;;;;;13.30;5.30;;;;;;;14.26;100.00;98946.67;109668;1250;59898;-74
2024/04/06 04:37:05;;;;;;;11.10;5.10;;;;;;;14.24;100.00;98948.77;109365;1251;61547;-74
2024/04/06 04:39:32;;;;;;;10.80;4.30;;;;;;;14.26;100.00;98952.02;109653;1251;60035;-74
2024/04/06 04:41:58;;;;;;;9.80;4.40;;;;;;;14.26;100.00;98954.30;109637;1251;59881;-75
2024/04/06 04:44:24;;;;;;;10.50;4.90;;;;;;;14.26;100.00;98955.99;109487;1251;59789;-74
2024/04/06 04:46:51;;;;;;;11.40;4.30;;;;;;;14.26;100.00;98952.22;109663;1251;59819;-74
2024/04/06 04:49:17;;;;;;;12.40;4.10;;;;;;;14.27;100.00;98952.87;109705;1251;59826;-74
2024/04/06 04:51:44;;;;;;;17.60;5.40;;;;;;;14.28;100.00;98959.75;109615;1250;60494;-74
2024/04/06 04:54:10;;;;;;;23.30;5.90;;;;;;;14.28;100.00;98962.98;109622;1251;59900;-74
2024/04/06 04:56:37;;;;;;;24.00;6.70;;;;;;;14.27;100.00;98966.79;109654;1250;59992;-74
2024/04/06 04:59:06;;;;;;;23.90;6.30;;;;;;;14.27;100.00;98967.02;109665;1251;60305;-75
2024/04/06 05:01:33;;;;;;;12.10;4.70;;;;;;;14.25;100.00;98973.94;109547;1251;65285;-74
2024/04/06 05:03:59;;;;;;;5.90;3.00;;;;;;;14.22;100.00;98980.77;109671;1251;60170;-74
2024/04/06 05:06:25;;;;;;;7.40;3.10;;;;;;;14.21;100.00;98986.08;109654;1249;59799;-74
2024/04/06 05:08:52;;;;;;;4.70;3.10;;;;;;;14.20;100.00;98990.77;109666;1251;60050;-76
2024/04/06 05:11:18;;;;;;;4.50;2.90;;;;;;;14.20;100.00;98994.88;109658;1251;59999;-74
2024/04/06 05:13:44;;;;;;;5.80;3.00;;;;;;;14.20;100.00;99001.70;109662;1251;59817;-74
2024/04/06 05:16:11;;;;;;;5.00;3.40;;;;;;;14.20;100.00;98997.02;109691;1250;59863;-74
2024/04/06 05:18:38;;;;;;;5.20;3.20;;;;;;;14.20;100.00;98992.73;109652;1250;59877;-74
2024/04/06 05:21:04;;;;;;;7.30;3.00;;;;;;;14.20;100.00;98994.38;109656;1251;59749;-75
2024/04/06 05:23:31;;;;;;;7.20;2.90;;;;;;;14.21;100.00;99000.50;109712;1250;60804;-72
2024/04/06 05:25:57;;;;;;;6.50;3.20;;;;;;;14.25;100.00;99005.05;109697;1251;59774;-74
2024/04/06 05:28:28;;;;;;;4.30;2.80;;;;;;;14.28;100.00;99003.70;109485;1251;60126;-74
2024/04/06 05:30:54;;;;;;;3.10;2.30;;;;;;;14.32;100.00;99009.23;109633;1251;63738;-75
2024/04/06 05:33:22;;;;;;;5.30;2.40;;;;;;;14.36;100.00;99014.30;109629;1251;59921;-73
2024/04/06 05:35:50;;;;;;;2.40;2.20;;;;;;;14.40;100.00;99016.30;109521;1250;60089;-73
2024/04/06 05:38:18;;;;;;;3.80;2.10;;;;;;;14.44;100.00;99016.30;109659;1251;66921;-74
2024/04/06 05:40:45;;;;;;;5.60;2.20;;;;;;;14.49;100.00;99014.83;109673;1251;61055;-74
2024/04/06 05:43:12;;;;;;;4.00;2.50;;;;;;;14.54;100.00;99018.63;109672;1251;64098;-75
2024/04/06 05:45:41;;;;;;;2.70;2.00;;;;;;;14.57;100.00;99019.77;109656;1249;59762;-74
2024/04/06 05:48:08;;;;;;;2.60;1.90;;;;;;;14.61;100.00;99017.60;109656;1251;59778;-74
2024/04/06 05:50:37;;;;;;;6.80;2.20;;;;;;;14.66;100.00;99019.90;109657;1250;65501;-74
2024/04/06 05:53:04;;;;;;;2.80;2.10;;;;;;;14.71;100.00;99021.04;109659;1250;60201;-74
2024/04/06 05:55:31;;;;;;;3.20;2.20;;;;;;;14.78;100.00;99027.98;109669;1251;63907;-74
2024/04/06 05:57:58;;;;;;;5.50;2.90;;;;;;;14.84;100.00;99030.35;109681;1251;59714;-74
2024/04/06 06:00:25;;;;;;;4.90;2.40;;;;;;;14.90;100.00;99030.58;109518;1249;59823;-74
2024/04/06 06:02:53;;;;;;;3.30;3.00;;;;;;;14.97;100.00;99034.14;109656;1251;66834;-74
2024/04/06 06:05:19;;;;;;;5.20;2.60;;;;;;;15.05;100.00;99041.00;109663;1250;61155;-74
2024/04/06 06:07:46;;;;;;;3.60;2.70;;;;;;;15.13;100.00;99047.24;109632;1249;64066;-74
2024/04/06 06:10:13;;;;;;;4.80;3.30;;;;;;;15.22;100.00;99045.02;109631;1250;59802;-73
2024/04/06 06:12:39;;;;;;;7.80;3.90;;;;;;;15.33;100.00;99050.03;109649;1250;60056;-74
2024/04/06 06:15:06;;;;;;;7.50;3.80;;;;;;;15.45;100.00;99050.77;109696;1250;66912;-75
2024/04/06 06:17:32;;;;;;;9.10;3.70;;;;;;;15.58;100.00;99052.67;109708;1251;60164;-73
2024/04/06 06:19:59;;;;;;;7.50;3.40;;;;;;;15.72;100.00;99060.10;109680;1249;59806;-75
2024/04/06 06:22:29;;;;;;;6.90;3.30;;;;;;;15.84;100.00;99057.27;109616;1251;59769;-74
2024/04/06 06:24:56;;;;;;;5.40;3.20;;;;;;;15.97;100.00;99060.77;109693;1250;59988;-74
2024/04/06 06:27:23;;;;;;;5.80;2.80;;;;;;;16.15;100.00;99058.69;109641;1250;65781;-75
2024/04/06 06:29:50;;;;;;;8.50;2.60;;;;;;;16.35;100.00;99056.15;109659;1251;60130;-74
2024/04/06 06:32:17;;;;;;;4.40;2.70;;;;;;;16.54;100.00;99056.39;109333;1250;62532;-73
2024/04/06 06:34:44;;;;;;;6.60;2.50;;;;;;;16.74;100.00;99057.86;109660;1250;59830;-74
2024/04/06 06:37:10;;;;;;;6.90;2.60;;;;;;;16.88;100.00;99057.98;109658;1250;59816;-75
2024/04/06 06:39:37;;;;;;;3.40;2.40;;;;;;;17.03;100.00;99058.27;109700;1249;60338;-75
2024/04/06 06:42:03;;;;;;;6.20;2.50;;;;;;;17.17;100.00;99055.36;109674;1251;59849;-75
2024/04/06 06:44:30;;;;;;;7.50;2.70;;;;;;;17.31;100.00;99054.20;109660;1249;59833;-74
2024/04/06 06:46:57;;;;;;;6.50;2.90;;;;;;;17.40;100.00;99053.88;109661;1251;60056;-77
2024/04/06 06:49:23;;;;;;;5.60;3.20;;;;;;;17.52;100.00;99051.10;109731;1250;59983;-73
2024/04/06 06:51:49;;;;;;;5.40;2.90;;;;;;;17.68;100.00;99051.40;109668;1250;59840;-73
2024/04/06 06:54:16;;;;;;;6.50;3.00;;;;;;;17.82;100.00;99055.70;109683;1250;59779;-74
2024/04/06 06:56:42;;;;;;;4.30;3.30;;;;;;;17.95;100.00;99055.17;109650;1250;59825;-74
2024/04/06 06:59:08;;;;;;;5.20;2.80;;;;;;;18.03;100.00;99057.08;109670;1250;59840;-74
2024/04/06 07:01:35;;;;;;;4.50;2.80;;;;;;;18.12;100.00;99055.27;109659;1250;59868;-73
2024/04/06 07:04:02;;;;;;;5.80;2.70;;;;;;;18.23;100.00;99052.10;109707;1250;59910;-75
2024/04/06 07:06:28;;;;;;;5.90;2.80;;;;;;;18.27;99.28;99055.42;109690;1250;59878;-74
2024/04/06 07:08:54;;;;;;;4.90;3.10;;;;;;;18.29;98.64;99061.01;109674;1249;60231;-73
2024/04/06 07:11:20;;;;;;;5.70;3.00;;;;;;;18.35;98.34;99071.42;109703;1250;59789;-74
2024/04/06 07:13:47;;;;;;;4.50;2.70;;;;;;;18.45;98.51;99075.85;109713;1250;59851;-74
2024/04/06 07:16:14;;;;;;;4.10;3.00;;;;;;;18.64;99.19;99074.82;109663;1250;59734;-74
2024/04/06 07:18:41;;;;;;;2.90;2.40;;;;;;;18.79;97.19;99079.80;109702;1249;60059;-72
2024/04/06 07:21:10;;;;;;;6.00;3.10;;;;;;;18.85;95.59;99083.91;109663;1250;64117;-73
2024/04/06 07:23:37;;;;;;;6.00;2.40;;;;;;;18.91;95.35;99081.75;109650;1250;60037;-73
2024/04/06 07:26:04;;;;;;;4.90;2.30;;;;;;;18.94;94.58;99078.21;109665;1250;59801;-74
2024/04/06 07:28:31;;;;;;;3.50;2.20;;;;;;;19.01;94.51;99077.29;109653;1250;67753;-73
2024/04/06 07:30:58;;;;;;;3.80;2.30;;;;;;;19.03;92.50;99073.46;109690;1250;60288;-74
2024/04/06 07:33:27;;;;;;;4.10;2.10;;;;;;;19.02;92.14;99071.40;109511;1250;59896;-74
2024/04/06 07:35:53;;;;;;;3.50;1.70;;;;;;;19.04;91.19;99073.23;109702;1250;59761;-74
2024/04/06 07:38:20;;;;;;;3.10;1.70;;;;;;;19.08;90.43;99074.27;109708;1250;59926;-73
2024/04/06 07:40:46;;;;;;;2.30;1.60;;;;;;;19.17;88.98;99076.79;109635;1250;60175;-75
2024/04/06 07:43:12;;;;;;;4.60;1.70;;;;;;;19.18;85.81;99077.89;109710;1250;59888;-75
2024/04/06 07:45:39;;;;;;;2.20;1.70;;;;;;;19.23;85.14;99077.36;109715;1250;59858;-74
2024/04/06 07:48:05;;;;;;;2.40;1.60;;;;;;;19.24;84.35;99072.58;109630;1250;60093;-75
2024/04/06 07:50:32;;;;;;;3.10;1.50;;;;;;;19.28;84.49;99067.49;109723;1250;59836;-74
2024/04/06 07:52:58;;;;;;;3.20;1.50;;;;;;;19.35;84.61;99069.34;109693;1250;59769;-74
2024/04/06 07:55:25;;;;;;;1.90;1.40;;;;;;;19.45;84.84;99074.92;109747;1250;60118;-74
2024/04/06 07:57:51;;;;;;;2.60;1.60;;;;;;;19.51;84.32;99074.91;109663;1250;59800;-74
2024/04/06 08:00:18;;;;;;;4.70;1.50;;;;;;;19.67;84.85;99072.39;109667;1250;59818;-73
2024/04/06 08:02:44;;;;;;;1.70;1.40;;;;;;;19.84;83.71;99074.21;109683;1250;59842;-73
2024/04/06 08:05:12;;;;;;;5.00;1.50;;;;;;;19.87;83.43;99074.42;109690;1249;60057;-75
2024/04/06 08:07:38;;;;;;;3.30;1.80;;;;;;;19.96;83.67;99077.11;109687;1250;60251;-74
2024/04/06 08:10:17;;;;;;;3.70;1.80;;;;;;;20.06;83.00;99080.42;109668;1250;59847;-76
2024/04/06 08:12:44;;;;;;;2.80;1.50;;;;;;;20.12;82.69;99083.19;109653;1249;60099;-74
2024/04/06 08:15:11;;;;;;;3.10;1.60;;;;;;;20.14;82.08;99083.88;109725;1249;59783;-75
2024/04/06 08:17:46;;;;;;;4.30;1.90;;;;;;;20.15;80.95;99087.86;109664;1249;66627;-75
2024/04/06 08:20:12;;;;;;;3.90;2.00;;;;;;;20.23;81.63;99088.04;109700;1250;59742;-74
2024/04/06 08:22:39;;;;;;;2.30;1.50;;;;;;;20.35;81.67;99086.91;109687;1250;63046;-74
2024/04/06 08:25:06;;;;;;;6.70;1.60;;;;;;;20.43;81.06;99087.67;109653;1250;59792;-74
2024/04/06 08:27:33;;;;;;;3.60;1.60;;;;;;;20.53;81.00;99088.76;109581;1249;150311;-74
2024/04/06 08:30:00;;;;;;;4.30;1.90;;;;;;;20.62;79.87;99091.50;109697;1250;65655;-75
2024/04/06 08:32:28;;;;;;;5.80;2.40;;;;;;;20.66;80.08;99091.41;109639;1250;59848;-74
2024/04/06 08:34:55;;;;;;;5.00;3.10;;;;;;;20.72;79.78;99090.59;109626;1250;62579;-74
2024/04/06 08:37:22;;;;;;;4.70;2.40;;;;;;;20.73;78.22;99092.45;109650;1249;59792;-74
2024/04/06 08:39:48;;;;;;;6.00;2.10;;;;;;;20.75;78.87;99093.72;109682;1249;59944;-74
2024/04/06 08:42:18;;;;;;;4.20;2.50;;;;;;;20.82;78.99;99090.23;109668;1250;59759;-74
2024/04/06 08:44:45;;;;;;;4.90;2.90;;;;;;;20.89;79.06;99089.26;109707;1250;60164;-74
2024/04/06 08:47:14;;;;;;;5.20;2.30;;;;;;;20.97;79.08;99087.66;109386;1250;64183;-73
2024/04/06 08:49:41;;;;;;;2.10;1.80;;;;;;;21.03;78.87;99094.77;109657;1250;59812;-73
2024/04/06 08:52:08;;;;;;;2.40;1.90;;;;;;;21.06;77.97;99092.30;109683;1249;59866;-75
2024/04/06 08:54:36;;;;;;;3.00;2.00;;;;;;;21.06;77.10;99087.94;109666;1250;67710;-74
2024/04/06 08:57:06;;;;;;;3.40;1.80;;;;;;;21.12;76.77;99086.19;109719;1249;59810;-75
2024/04/06 08:59:33;;;;;;;4.00;2.10;;;;;;;21.11;75.87;99084.52;109402;1249;65085;-74
2024/04/06 09:02:01;;;;;;;2.30;1.80;;;;;;;21.04;75.67;99085.27;109636;1250;59730;-74
2024/04/06 09:04:27;;;;;;;5.80;2.50;;;;;;;21.04;75.37;99085.12;109704;1250;59980;-74
2024/04/06 09:06:54;;;;;;;3.60;2.60;;;;;;;21.04;75.66;99084.92;109679;1250;66839;-74
2024/04/06 09:09:21;;;;;;;3.20;2.00;;;;;;;21.16;76.04;99089.80;109704;1250;60152;-74
2024/04/06 09:11:47;;;;;;;5.40;2.80;;;;;;;21.35;75.72;99092.23;109656;1250;64902;-74
2024/04/06 09:14:14;;;;;;;4.60;2.30;;;;;;;21.45;74.74;99097.23;109647;1250;60068;-74
2024/04/06 09:16:40;;;;;;;5.80;2.40;;;;;;;21.53;74.67;99101.80;109697;1250;59777;-74
2024/04/06 09:19:08;;;;;;;3.90;2.20;;;;;;;21.58;74.37;99093.84;109683;1250;59837;-74
2024/04/06 09:21:34;;;;;;;3.80;2.10;;;;;;;21.64;74.36;99093.90;109580;1249;60331;-74
2024/04/06 09:24:01;;;;;;;2.30;1.80;;;;;;;21.80;74.72;99087.08;109680;1249;59764;-75
2024/04/06 09:26:31;;;;;;;4.50;2.80;;;;;;;21.86;73.03;99083.80;109729;1250;59811;-74
2024/04/06 09:28:59;;;;;;;3.20;2.00;;;;;;;21.83;73.30;99083.02;109749;1249;59722;-74
2024/04/06 09:31:27;;;;;;;3.60;2.00;;;;;;;21.98;74.43;99079.06;109727;1249;65266;-75
2024/04/06 09:33:59;;;;;;;4.20;2.40;;;;;;;22.14;73.40;99076.64;109690;1250;59951;-75
2024/04/06 09:36:26;;;;;;;2.30;1.80;;;;;;;22.17;73.13;99079.59;109415;1250;62691;-75
2024/04/06 09:38:54;;;;;;;5.10;2.20;;;;;;;22.24;72.37;99083.56;109524;1250;59851;-74
2024/04/06 09:41:21;;;;;;;3.20;1.90;;;;;;;22.13;70.92;99082.41;109737;1250;59785;-75
2024/04/06 09:43:49;;;;;;;5.20;2.60;;;;;;;22.06;69.91;99086.47;109680;1250;66865;-74
2024/04/06 09:46:17;;;;;;;3.20;1.80;;;;;;;21.87;69.16;99086.31;109671;1250;60094;-74
2024/04/06 09:48:43;;;;;;;3.70;1.90;;;;;;;21.63;70.76;99090.21;109674;1250;64038;-75
2024/04/06 09:51:10;;;;;;;5.10;1.80;;;;;;;21.55;71.33;99086.77;109626;1250;59903;-75
2024/04/06 09:53:38;;;;;;;3.40;1.40;;;;;;;21.59;71.84;99082.70;109720;1249;59793;-74
2024/04/06 09:56:07;;;;;;;2.60;1.60;;;;;;;21.71;71.18;99079.55;109700;1250;66533;-74
2024/04/06 09:58:34;;;;;;;3.80;1.90;;;;;;;21.60;70.89;99079.47;109698;1250;59732;-73
2024/04/06 10:01:08;;;;;;;2.20;1.40;;;;;;;21.54;72.04;99080.33;109700;1250;64057;-73
2024/04/06 10:03:49;;;;;;;3.60;2.00;;;;;;;21.60;70.74;99078.83;109632;1250;59767;-74
2024/04/06 10:06:17;;;;;;;2.90;1.70;;;;;;;21.48;70.20;99079.76;109734;1249;60736;-74
2024/04/06 10:08:47;;;;;;;4.10;1.60;;;;;;;21.43;71.22;99077.55;109658;1250;65335;-74
2024/04/06 10:11:17;;;;;;;2.50;1.30;;;;;;;21.45;71.47;99079.52;109708;1250;60135;-74
2024/04/06 10:13:53;;;;;;;2.60;1.70;;;;;;;21.50;71.42;99078.47;109674;1250;64482;-75
2024/04/06 10:16:25;;;;;;;1.90;1.60;;;;;;;21.51;71.40;99076.22;109651;1250;59852;-73
2024/04/06 10:18:54;;;;;;;2.00;1.50;;;;;;;21.59;71.69;99067.80;109680;1250;59813;-75
2024/04/06 10:21:35;;;;;;;3.90;1.60;;;;;;;21.75;71.69;99068.45;109697;1250;65401;-73
2024/04/06 10:24:10;;;;;;;3.80;1.60;;;;;;;21.95;70.69;99068.37;109514;1249;60302;-74
2024/04/06 10:26:46;;;;;;;1.70;1.20;;;;;;;21.98;68.78;99063.29;109648;1249;64182;-74
2024/04/06 10:29:15;;;;;;;2.30;1.40;;;;;;;22.04;69.07;99065.73;109659;1250;59740;-74
2024/04/06 10:31:42;;;;;;;3.80;1.40;;;;;;;22.21;69.47;99061.39;109694;1250;59744;-74
2024/04/06 10:34:09;;;;;;;2.20;1.40;;;;;;;22.37;69.07;99056.05;109553;1250;66527;-73
2024/04/06 10:36:36;;;;;;;4.50;1.90;;;;;;;22.37;68.04;99055.06;109671;1250;60699;-74
2024/04/06 10:39:07;;;;;;;2.20;1.30;;;;;;;22.34;67.78;99054.16;109661;1251;65309;-73
2024/04/06 10:41:42;;;;;;;1.40;1.30;;;;;;;22.39;68.26;99050.45;109635;1249;59803;-74
2024/04/06 10:44:09;;;;;;;7.20;3.90;;;;;;;22.51;68.34;99049.24;109697;1249;59694;-72
2024/04/06 10:46:36;;;;;;;2.00;1.40;;;;;;;22.64;68.26;99051.80;109640;1250;65631;-73
2024/04/06 10:49:09;;;;;;;1.30;1.00;;;;;;;22.70;66.21;99053.23;109497;1249;60023;-74
2024/04/06 10:51:36;;;;;;;2.70;1.30;;;;;;;22.66;65.21;99055.14;109713;1249;64113;-74
2024/04/06 10:54:03;;;;;;;1.40;1.10;;;;;;;22.58;64.00;99059.00;109678;1249;59801;-74
2024/04/06 10:56:30;;;;;;;3.10;1.10;;;;;;;22.62;65.46;99062.13;109656;1250;59737;-73
2024/04/06 10:58:56;;;;;;;3.40;1.50;;;;;;;22.71;64.60;99059.09;109662;1250;65638;-73
2024/04/06 11:01:23;;;;;;;3.00;1.10;;;;;;;22.75;64.78;99061.64;109706;1250;59848;-73
2024/04/06 11:03:50;;;;;;;2.20;1.30;;;;;;;22.72;64.21;99059.19;109657;1250;63731;-74
2024/04/06 11:06:16;;;;;;;1.70;1.40;;;;;;;22.73;64.90;99055.23;109405;1252;59834;-75
2024/04/06 11:08:43;;;;;;;3.50;1.60;;;;;;;22.76;63.97;99055.21;109384;1253;59916;-75
2024/04/06 11:11:10;;;;;;;2.90;1.40;;;;;;;22.71;63.40;99054.90;109431;1253;65590;-75
2024/04/06 11:13:39;;;;;;;2.50;1.30;;;;;;;22.61;63.18;99054.48;109395;1253;60225;-75
2024/04/06 11:16:09;;;;;;;1.80;1.20;;;;;;;22.62;64.21;99056.49;109392;1253;63058;-75
2024/04/06 11:18:39;;;;;;;;;;;;;;;22.64;62.61;99053.15;109439;1252;59830;-74